createdAt,value
2018-09-01T00:00:36.546Z,64.22
2018-09-01T00:03:05.312Z,63.67
2018-09-01T00:05:34.026Z,64.61
2018-09-01T00:08:02.866Z,65.00
2018-09-01T00:10:31.786Z,64.57
2018-09-01T00:13:00.484Z,64.97
2018-09-01T00:15:29.322Z,65.38
2018-09-01T00:17:58.074Z,65.37
2018-09-01T00:20:29.856Z,65.84
2018-09-01T00:22:58.713Z,65.80
2018-09-01T00:25:27.460Z,66.96
2018-09-01T00:27:56.178Z,67.18
2018-09-01T00:30:25.124Z,67.50
2018-09-01T00:32:53.887Z,67.65
2018-09-01T00:35:22.647Z,67.96
2018-09-01T00:37:56.536Z,67.93
2018-09-01T00:40:27.927Z,68.53
2018-09-01T00:42:58.943Z,67.87
2018-09-01T00:45:27.738Z,68.08
2018-09-01T00:47:56.651Z,68.13
2018-09-01T00:50:25.602Z,68.20
2018-09-01T00:52:54.359Z,67.98
2018-09-01T00:55:28.394Z,67.78
2018-09-01T00:57:57.231Z,68.09
2018-09-01T01:00:26.074Z,68.63
2018-09-01T01:02:54.947Z,68.27
2018-09-01T01:05:23.869Z,67.80
2018-09-01T01:07:52.662Z,68.55
2018-09-01T01:10:21.608Z,67.75
2018-09-01T01:12:50.731Z,68.82
2018-09-01T01:15:19.923Z,68.37
2018-09-01T01:17:48.865Z,68.76
2018-09-01T01:20:17.702Z,68.52
2018-09-01T01:22:46.434Z,69.09
2018-09-01T01:25:15.205Z,68.34
2018-09-01T01:27:43.984Z,68.79
2018-09-01T01:30:12.806Z,69.15
2018-09-01T01:32:41.647Z,68.61
2018-09-01T01:35:10.479Z,69.42
2018-09-01T01:37:39.323Z,69.20
2018-09-01T01:40:08.189Z,69.43
2018-09-01T01:42:37.842Z,70.09
2018-09-01T01:45:07.007Z,70.55
2018-09-01T01:47:39.294Z,71.38
2018-09-01T01:50:09.256Z,71.97
2018-09-01T01:52:38.032Z,72.24
2018-09-01T01:55:07.184Z,72.06
2018-09-01T01:57:40.948Z,72.56
2018-09-01T02:00:10.176Z,72.64
2018-09-01T02:02:39.000Z,72.39
2018-09-01T02:05:09.968Z,72.72
2018-09-01T02:07:39.533Z,72.10
2018-09-01T02:10:08.381Z,72.47
2018-09-01T02:12:37.079Z,72.58
2018-09-01T02:15:05.870Z,72.18
2018-09-01T02:17:34.922Z,72.62
2018-09-01T02:20:03.660Z,72.94
2018-09-01T02:22:32.851Z,73.23
2018-09-01T02:25:01.948Z,73.26
2018-09-01T02:27:30.663Z,72.90
2018-09-01T02:29:59.999Z,72.94
2018-09-01T02:32:28.688Z,72.92
2018-09-01T02:34:57.530Z,72.53
2018-09-01T02:37:26.252Z,73.71
2018-09-01T02:39:54.976Z,72.96
2018-09-01T02:42:23.714Z,73.12
2018-09-01T02:44:52.495Z,73.42
2018-09-01T02:47:21.273Z,73.90
2018-09-01T02:49:50.007Z,74.78
2018-09-01T02:52:18.775Z,74.51
2018-09-01T02:54:47.558Z,75.03
2018-09-01T02:57:16.212Z,74.71
2018-09-01T02:59:44.925Z,75.16
2018-09-01T03:02:17.774Z,75.22
2018-09-01T03:04:46.636Z,75.44
2018-09-01T03:07:15.312Z,75.30
2018-09-01T03:09:44.012Z,75.12
2018-09-01T03:12:12.704Z,75.35
2018-09-01T03:14:41.455Z,74.47
2018-09-01T03:17:10.130Z,74.44
2018-09-01T03:19:38.874Z,75.67
2018-09-01T03:22:07.648Z,76.01
2018-09-01T03:24:36.458Z,75.55
2018-09-01T03:27:05.378Z,76.64
2018-09-01T03:29:34.128Z,76.47
2018-09-01T03:32:03.031Z,76.29
2018-09-01T03:34:31.811Z,76.73
2018-09-01T03:37:00.623Z,75.85
2018-09-01T03:39:29.348Z,76.50
2018-09-01T03:41:58.135Z,76.81
2018-09-01T03:44:26.964Z,76.55
2018-09-01T03:46:56.940Z,75.89
2018-09-01T03:49:25.982Z,76.93
2018-09-01T03:51:54.915Z,76.98
2018-09-01T03:54:23.768Z,76.27
2018-09-01T03:56:52.515Z,76.85
2018-09-01T03:59:21.291Z,76.60
2018-09-01T04:01:50.043Z,77.25
2018-09-01T04:04:18.792Z,76.31
2018-09-01T04:06:47.617Z,75.93
2018-09-01T04:09:16.436Z,74.71
2018-09-01T04:11:45.183Z,74.43
2018-09-01T04:14:14.141Z,73.65
2018-09-01T04:16:42.903Z,73.22
2018-09-01T04:19:17.723Z,73.54
2018-09-01T04:21:47.940Z,72.47
2018-09-01T04:24:16.810Z,72.97
2018-09-01T04:26:46.248Z,72.85
2018-09-01T04:29:15.442Z,73.87
2018-09-01T04:31:44.439Z,73.99
2018-09-01T04:34:13.257Z,74.50
2018-09-01T04:36:41.985Z,73.90
2018-09-01T04:39:12.200Z,73.32
2018-09-01T04:41:41.523Z,71.95
2018-09-01T04:44:10.448Z,70.45
2018-09-01T04:46:39.871Z,70.00
2018-09-01T04:49:08.683Z,69.60
2018-09-01T04:51:37.590Z,69.56
2018-09-01T04:54:06.346Z,68.32
2018-09-01T04:56:35.076Z,67.73
2018-09-01T04:59:03.945Z,66.16
2018-09-01T05:01:32.704Z,65.63
2018-09-01T05:04:01.511Z,64.58
2018-09-01T05:06:30.384Z,63.60
2018-09-01T05:08:59.348Z,62.59
2018-09-01T05:11:28.399Z,61.77
2018-09-01T05:13:57.239Z,61.70
2018-09-01T05:16:26.106Z,60.71
2018-09-01T05:18:55.087Z,59.81
2018-09-01T05:21:23.910Z,59.66
2018-09-01T05:23:52.873Z,59.39
2018-09-01T05:26:22.011Z,57.78
2018-09-01T05:28:50.771Z,57.79
2018-09-01T05:31:19.653Z,58.34
2018-09-01T05:33:48.433Z,57.87
2018-09-01T05:36:17.298Z,56.63
2018-09-01T05:38:46.110Z,57.78
2018-09-01T05:41:14.948Z,57.04
2018-09-01T05:43:43.723Z,55.76
2018-09-01T05:46:12.496Z,54.93
2018-09-01T05:48:41.259Z,54.66
2018-09-01T05:51:10.088Z,55.39
2018-09-01T05:53:38.808Z,56.60
2018-09-01T05:56:07.600Z,56.96
2018-09-01T05:58:36.400Z,56.66
2018-09-01T06:01:05.434Z,57.33
2018-09-01T06:03:34.505Z,56.80
2018-09-01T06:06:03.289Z,54.34
2018-09-01T06:08:32.129Z,52.52
2018-09-01T06:11:00.934Z,52.55
2018-09-01T06:13:29.615Z,53.38
2018-09-01T06:15:58.358Z,52.07
2018-09-01T06:18:27.061Z,52.48
2018-09-01T06:20:56.754Z,51.41
2018-09-01T06:23:25.467Z,53.06
2018-09-01T06:25:54.207Z,52.72
2018-09-01T06:28:26.223Z,52.80
2018-09-01T06:30:55.985Z,51.67
2018-09-01T06:33:24.873Z,53.22
2018-09-01T06:35:53.547Z,52.94
2018-09-01T06:38:22.329Z,53.38
2018-09-01T06:40:51.109Z,52.74
2018-09-01T06:43:19.894Z,53.15
2018-09-01T06:45:48.722Z,53.30
2018-09-01T06:48:17.595Z,53.10
2018-09-01T06:50:46.321Z,52.84
2018-09-01T06:53:15.020Z,52.25
2018-09-01T06:55:43.810Z,51.76
2018-09-01T06:58:12.536Z,51.15
2018-09-01T07:00:41.241Z,50.73
2018-09-01T07:03:09.933Z,47.50
2018-09-01T07:05:38.743Z,46.32
2018-09-01T07:08:07.627Z,44.19
2018-09-01T07:10:36.350Z,43.77
2018-09-01T07:13:05.373Z,43.39
2018-09-01T07:15:34.125Z,41.42
2018-09-01T07:18:02.866Z,40.42
2018-09-01T07:20:31.671Z,41.35
2018-09-01T07:23:00.551Z,40.25
2018-09-01T07:25:29.519Z,41.46
2018-09-01T07:27:58.540Z,40.24
2018-09-01T07:30:29.451Z,40.35
2018-09-01T07:32:58.192Z,39.84
2018-09-01T07:35:37.504Z,38.13
2018-09-01T07:38:06.492Z,37.88
2018-09-01T07:40:35.329Z,36.55
2018-09-01T07:43:04.215Z,36.14
2018-09-01T07:45:32.986Z,37.97
2018-09-01T07:48:01.895Z,38.02
2018-09-01T07:50:30.649Z,37.10
2018-09-01T07:52:59.549Z,35.51
2018-09-01T07:55:28.446Z,35.36
2018-09-01T07:57:57.311Z,36.24
2018-09-01T08:00:26.157Z,35.26
2018-09-01T08:02:55.044Z,36.15
2018-09-01T08:05:23.958Z,35.45
2018-09-01T08:07:52.796Z,35.03
2018-09-01T08:10:21.696Z,33.60
2018-09-01T08:12:50.578Z,35.08
2018-09-01T08:15:19.425Z,33.97
2018-09-01T08:17:48.168Z,33.28
2018-09-01T08:20:17.072Z,31.86
2018-09-01T08:22:46.089Z,32.46
2018-09-01T08:25:15.044Z,32.23
2018-09-01T08:27:44.213Z,31.86
2018-09-01T08:30:12.995Z,31.71
2018-09-01T08:32:41.922Z,31.69
2018-09-01T08:35:16.063Z,31.49
2018-09-01T08:37:44.875Z,31.57
2018-09-01T08:40:13.685Z,31.88
2018-09-01T08:42:42.587Z,30.72
2018-09-01T08:45:11.448Z,30.09
2018-09-01T08:47:40.242Z,30.20
2018-09-01T08:50:09.157Z,29.23
2018-09-01T08:52:37.962Z,29.47
2018-09-01T08:55:06.948Z,30.14
2018-09-01T08:57:35.716Z,31.00
2018-09-01T09:00:06.285Z,30.78
2018-09-01T09:02:35.055Z,29.27
2018-09-01T09:05:03.961Z,29.79
2018-09-01T09:07:32.809Z,30.45
2018-09-01T09:10:01.756Z,29.05
2018-09-01T09:12:30.654Z,29.07
2018-09-01T09:14:59.610Z,29.79
2018-09-01T09:17:28.474Z,29.39
2018-09-01T09:19:57.306Z,27.71
2018-09-01T09:22:26.172Z,28.80
2018-09-01T09:24:55.249Z,27.47
2018-09-01T09:27:24.054Z,26.47
2018-09-01T09:29:52.938Z,28.14
2018-09-01T09:32:21.830Z,27.15
2018-09-01T09:34:50.752Z,27.16
2018-09-01T09:37:19.723Z,26.88
2018-09-01T09:39:48.734Z,27.01
2018-09-01T09:42:17.593Z,26.14
2018-09-01T09:44:46.377Z,27.74
2018-09-01T09:47:15.037Z,27.64
2018-09-01T09:49:43.718Z,27.97
2018-09-01T09:52:12.389Z,26.07
2018-09-01T09:54:41.163Z,25.46
2018-09-01T09:57:09.923Z,25.35
2018-09-01T09:59:38.670Z,24.74
2018-09-01T10:02:07.445Z,25.59
2018-09-01T10:04:36.167Z,24.64
2018-09-01T10:07:04.921Z,25.86
2018-09-01T10:09:33.579Z,25.51
2018-09-01T10:12:02.235Z,24.92
2018-09-01T10:14:30.958Z,24.50
2018-09-01T10:16:59.617Z,25.84
2018-09-01T10:19:28.279Z,25.94
2018-09-01T10:21:57.135Z,25.67
2018-09-01T10:24:25.852Z,25.85
2018-09-01T10:26:54.689Z,25.38
2018-09-01T10:29:24.361Z,24.70
2018-09-01T10:31:53.531Z,25.30
2018-09-01T10:34:22.318Z,25.83
2018-09-01T10:36:51.183Z,25.56
2018-09-01T10:39:19.963Z,24.45
2018-09-01T10:41:48.742Z,24.47
2018-09-01T10:44:17.730Z,24.88
2018-09-01T10:46:46.614Z,23.87
2018-09-01T10:49:15.506Z,23.45
2018-09-01T10:51:44.394Z,24.31
2018-09-01T10:54:13.103Z,24.52
2018-09-01T10:56:42.013Z,25.64
2018-09-01T10:59:10.951Z,27.11
2018-09-01T11:01:39.715Z,25.92
2018-09-01T11:04:08.731Z,25.99
2018-09-01T11:06:37.591Z,25.00
2018-09-01T11:09:09.180Z,24.16
2018-09-01T11:11:37.964Z,24.57
2018-09-01T11:14:06.915Z,24.86
2018-09-01T11:16:35.799Z,23.19
2018-09-01T11:19:04.751Z,24.81
2018-09-01T11:21:33.655Z,25.05
2018-09-01T11:24:02.548Z,25.57
2018-09-01T11:26:31.367Z,25.00
2018-09-01T11:29:00.215Z,23.48
2018-09-01T11:31:29.102Z,22.79
2018-09-01T11:33:57.898Z,24.54
2018-09-01T11:36:26.962Z,23.79
2018-09-01T11:38:56.431Z,23.58
2018-09-01T11:41:25.293Z,23.75
2018-09-01T11:43:54.260Z,24.06
2018-09-01T11:46:23.107Z,23.67
2018-09-01T11:48:51.981Z,24.91
2018-09-01T11:51:20.792Z,24.44
2018-09-01T11:53:49.551Z,25.09
2018-09-01T11:56:18.383Z,24.79
2018-09-01T11:58:47.223Z,24.47
2018-09-01T12:01:16.103Z,24.88
2018-09-01T12:03:44.918Z,24.47
2018-09-01T12:06:13.606Z,24.88
2018-09-01T12:08:42.407Z,24.54
2018-09-01T12:11:11.415Z,24.16
2018-09-01T12:13:41.166Z,24.70
2018-09-01T12:16:10.178Z,24.40
2018-09-01T12:18:39.108Z,24.52
2018-09-01T12:21:07.967Z,24.18
2018-09-01T12:23:36.735Z,23.97
2018-09-01T12:26:05.625Z,24.80
2018-09-01T12:28:34.623Z,25.05
2018-09-01T12:31:03.417Z,25.28
2018-09-01T12:33:32.511Z,25.94
2018-09-01T12:36:01.571Z,25.36
2018-09-01T12:38:30.408Z,24.49
2018-09-01T12:40:59.311Z,24.38
2018-09-01T12:43:28.186Z,25.19
2018-09-01T12:45:56.968Z,23.80
2018-09-01T12:48:25.750Z,24.45
2018-09-01T12:50:54.571Z,23.73
2018-09-01T12:53:23.417Z,22.90
2018-09-01T12:55:52.232Z,21.89
2018-09-01T12:58:21.055Z,23.61
2018-09-01T13:00:49.980Z,23.54
2018-09-01T13:03:18.835Z,24.29
2018-09-01T13:05:47.717Z,24.07
2018-09-01T13:08:16.432Z,22.84
2018-09-01T13:10:45.229Z,23.41
2018-09-01T13:13:14.132Z,24.03
2018-09-01T13:15:42.898Z,23.19
2018-09-01T13:18:11.605Z,24.44
2018-09-01T13:20:40.406Z,25.30
2018-09-01T13:23:09.185Z,25.45
2018-09-01T13:25:37.853Z,25.57
2018-09-01T13:28:06.530Z,25.69
2018-09-01T13:30:35.326Z,25.43
2018-09-01T13:33:04.061Z,25.91
2018-09-01T13:35:32.824Z,25.18
2018-09-01T13:38:01.584Z,25.38
2018-09-01T13:40:30.443Z,26.10
2018-09-01T13:42:59.135Z,27.10
2018-09-01T13:45:27.857Z,27.07
2018-09-01T13:47:56.784Z,26.75
2018-09-01T13:50:25.618Z,27.41
2018-09-01T13:52:54.531Z,27.37
2018-09-01T13:55:23.314Z,27.16
2018-09-01T13:57:52.123Z,28.28
2018-09-01T14:00:20.950Z,28.30
2018-09-01T14:02:49.786Z,27.97
2018-09-01T14:05:18.570Z,27.53
2018-09-01T14:07:47.436Z,27.03
2018-09-01T14:10:16.245Z,27.29
2018-09-01T14:12:45.191Z,27.47
2018-09-01T14:15:14.271Z,27.50
2018-09-01T14:17:43.252Z,26.66
2018-09-01T14:20:12.440Z,26.50
2018-09-01T14:22:41.299Z,26.61
2018-09-01T14:25:10.270Z,26.73
2018-09-01T14:27:39.076Z,27.10
2018-09-01T14:30:08.423Z,26.92
2018-09-01T14:32:37.401Z,27.94
2018-09-01T14:35:07.567Z,31.25
2018-09-01T14:37:36.527Z,31.56
2018-09-01T14:40:05.830Z,32.22
2018-09-01T14:42:35.029Z,31.51
2018-09-01T14:45:03.981Z,33.24
2018-09-01T14:47:32.842Z,32.47
2018-09-01T14:50:01.650Z,32.85
2018-09-01T14:52:30.339Z,33.26
2018-09-01T14:54:59.242Z,33.71
2018-09-01T14:57:28.022Z,33.53
2018-09-01T14:59:56.958Z,34.08
2018-09-01T15:02:26.037Z,34.12
2018-09-01T15:04:56.006Z,33.39
2018-09-01T15:07:24.891Z,33.86
2018-09-01T15:09:53.866Z,33.45
2018-09-01T15:12:22.963Z,34.38
2018-09-01T15:14:51.940Z,34.08
2018-09-01T15:17:20.761Z,35.08
2018-09-01T15:19:49.679Z,34.38
2018-09-01T15:22:18.426Z,34.76
2018-09-01T15:24:47.267Z,35.11
2018-09-01T15:27:16.046Z,36.00
2018-09-01T15:29:44.885Z,34.49
2018-09-01T15:32:13.710Z,35.65
2018-09-01T15:34:42.494Z,34.79
2018-09-01T15:37:11.259Z,36.15
2018-09-01T15:39:40.019Z,36.08
2018-09-01T15:42:08.891Z,36.84
2018-09-01T15:44:37.748Z,36.70
2018-09-01T15:47:06.608Z,37.92
2018-09-01T15:49:35.444Z,38.87
2018-09-01T15:52:04.392Z,37.82
2018-09-01T15:54:33.178Z,38.89
2018-09-01T15:57:02.164Z,39.17
2018-09-01T15:59:31.091Z,38.89
2018-09-01T16:01:59.914Z,39.24
2018-09-01T16:04:28.770Z,39.59
2018-09-01T16:06:57.733Z,38.47
2018-09-01T16:09:26.562Z,39.19
2018-09-01T16:11:55.522Z,39.93
2018-09-01T16:14:24.333Z,39.41
2018-09-01T16:16:53.317Z,39.71
2018-09-01T16:19:22.152Z,39.61
2018-09-01T16:21:51.011Z,39.75
2018-09-01T16:24:19.834Z,40.13
2018-09-01T16:26:48.550Z,40.65
2018-09-01T16:29:17.378Z,40.69
2018-09-01T16:31:46.165Z,40.82
2018-09-01T16:34:15.019Z,41.17
2018-09-01T16:36:43.902Z,41.43
2018-09-01T16:39:12.700Z,40.94
2018-09-01T16:41:41.605Z,40.61
2018-09-01T16:44:10.455Z,41.66
2018-09-01T16:46:39.513Z,40.93
2018-09-01T16:49:08.317Z,41.80
2018-09-01T16:51:37.441Z,41.91
2018-09-01T16:54:06.556Z,41.65
2018-09-01T16:56:35.313Z,42.29
2018-09-01T16:59:05.220Z,41.46
2018-09-01T17:01:34.142Z,42.18
2018-09-01T17:04:03.354Z,41.69
2018-09-01T17:06:32.043Z,41.88
2018-09-01T17:09:00.857Z,41.80
2018-09-01T17:11:29.567Z,42.72
2018-09-01T17:13:58.299Z,42.87
2018-09-01T17:16:27.083Z,42.21
2018-09-01T17:18:55.751Z,43.06
2018-09-01T17:21:24.483Z,43.15
2018-09-01T17:23:53.218Z,43.28
2018-09-01T17:26:21.998Z,43.84
2018-09-01T17:28:50.722Z,43.51
2018-09-01T17:31:19.503Z,43.16
2018-09-01T17:33:48.450Z,43.79
2018-09-01T17:36:17.121Z,43.85
2018-09-01T17:38:45.989Z,43.74
2018-09-01T17:41:14.765Z,43.84
2018-09-01T17:43:43.469Z,43.69
2018-09-01T17:46:12.240Z,43.44
2018-09-01T17:48:40.971Z,43.61
2018-09-01T17:51:09.666Z,44.08
2018-09-01T17:53:38.339Z,44.13
2018-09-01T17:56:07.116Z,44.25
2018-09-01T17:58:35.851Z,44.45
2018-09-01T18:01:04.676Z,44.82
2018-09-01T18:03:33.407Z,44.79
2018-09-01T18:06:02.156Z,45.05
2018-09-01T18:08:30.932Z,44.74
2018-09-01T18:10:59.725Z,44.95
2018-09-01T18:13:28.450Z,45.37
2018-09-01T18:15:57.207Z,45.32
2018-09-01T18:18:25.978Z,45.62
2018-09-01T18:20:54.693Z,46.11
2018-09-01T18:23:23.469Z,46.31
2018-09-01T18:25:52.155Z,46.70
2018-09-01T18:28:20.814Z,46.99
2018-09-01T18:30:49.682Z,47.75
2018-09-01T18:33:18.475Z,47.92
2018-09-01T18:35:47.256Z,48.18
2018-09-01T18:38:15.973Z,48.89
2018-09-01T18:40:44.755Z,49.20
2018-09-01T18:43:13.602Z,49.43
2018-09-01T18:45:42.326Z,49.31
2018-09-01T18:48:11.042Z,48.99
2018-09-01T18:50:39.776Z,48.21
2018-09-01T18:53:08.808Z,48.42
2018-09-01T18:55:37.641Z,48.85
2018-09-01T18:58:06.339Z,48.64
2018-09-01T19:00:35.186Z,49.04
2018-09-01T19:03:04.010Z,49.03
2018-09-01T19:05:32.861Z,49.96
2018-09-01T19:08:01.571Z,49.75
2018-09-01T19:10:30.264Z,49.87
2018-09-01T19:12:59.211Z,50.39
2018-09-01T19:15:27.881Z,50.87
2018-09-01T19:17:56.602Z,49.87
2018-09-01T19:20:25.460Z,50.81
2018-09-01T19:22:54.165Z,51.00
2018-09-01T19:25:22.839Z,50.58
2018-09-01T19:27:51.541Z,51.47
2018-09-01T19:30:21.565Z,51.58
2018-09-01T19:32:50.415Z,51.77
2018-09-01T19:35:19.146Z,51.14
2018-09-01T19:37:47.938Z,51.02
2018-09-01T19:40:16.875Z,51.28
2018-09-01T19:42:45.710Z,52.36
2018-09-01T19:45:14.629Z,52.59
2018-09-01T19:47:43.250Z,52.98
2018-09-01T19:50:12.003Z,52.70
2018-09-01T19:52:40.841Z,53.14
2018-09-01T19:55:09.904Z,52.96
2018-09-01T19:57:38.676Z,52.98
2018-09-01T20:00:08.670Z,53.30
2018-09-01T20:02:37.393Z,53.97
2018-09-01T20:05:06.415Z,53.59
2018-09-01T20:07:35.255Z,53.81
2018-09-01T20:10:04.086Z,53.46
2018-09-01T20:12:33.158Z,53.40
2018-09-01T20:15:02.126Z,53.58
2018-09-01T20:17:30.899Z,53.72
2018-09-01T20:19:59.679Z,53.98
2018-09-01T20:22:28.558Z,53.37
2018-09-01T20:24:57.369Z,53.03
2018-09-01T20:27:26.054Z,54.15
2018-09-01T20:29:54.899Z,54.21
2018-09-01T20:32:23.583Z,53.56
2018-09-01T20:34:52.463Z,54.48
2018-09-01T20:37:21.226Z,54.35
2018-09-01T20:39:50.051Z,54.11
2018-09-01T20:42:18.758Z,55.06
2018-09-01T20:44:47.579Z,55.37
2018-09-01T20:47:16.332Z,55.17
2018-09-01T20:49:44.963Z,55.04
2018-09-01T20:52:13.649Z,56.02
2018-09-01T20:54:42.534Z,55.44
2018-09-01T20:57:11.312Z,55.75
2018-09-01T20:59:39.984Z,55.97
2018-09-01T21:02:08.802Z,56.46
2018-09-01T21:04:37.484Z,56.36
2018-09-01T21:07:06.180Z,56.14
2018-09-01T21:09:34.922Z,57.00
2018-09-01T21:12:03.693Z,56.36
2018-09-01T21:14:32.364Z,56.52
2018-09-01T21:17:01.056Z,56.99
2018-09-01T21:19:29.995Z,57.35
2018-09-01T21:21:58.791Z,58.09
2018-09-01T21:24:27.585Z,57.93
2018-09-01T21:26:56.202Z,58.29
2018-09-01T21:29:24.849Z,57.40
2018-09-01T21:31:53.589Z,57.59
2018-09-01T21:34:22.312Z,57.47
2018-09-01T21:36:51.126Z,57.61
2018-09-01T21:39:19.837Z,58.23
2018-09-01T21:41:48.627Z,57.91
2018-09-01T21:44:17.338Z,58.14
2018-09-01T21:46:45.990Z,58.49
2018-09-01T21:49:14.712Z,58.54
2018-09-01T21:51:43.448Z,58.54
2018-09-01T21:54:12.167Z,58.12
2018-09-01T21:56:41.735Z,58.29
2018-09-01T21:59:10.452Z,58.95
2018-09-01T22:01:39.140Z,58.92
2018-09-01T22:04:07.842Z,58.93
2018-09-01T22:06:36.578Z,58.85
2018-09-01T22:09:06.360Z,59.72
2018-09-01T22:11:35.173Z,59.12
2018-09-01T22:14:03.937Z,60.16
2018-09-01T22:16:32.703Z,60.17
2018-09-01T22:19:01.508Z,59.80
2018-09-01T22:21:30.228Z,60.21
2018-09-01T22:23:58.968Z,60.69
2018-09-01T22:26:27.809Z,61.13
2018-09-01T22:28:56.488Z,61.19
2018-09-01T22:31:25.350Z,61.16
2018-09-01T22:33:54.021Z,61.40
2018-09-01T22:36:22.797Z,61.73
2018-09-01T22:38:51.612Z,61.71
2018-09-01T22:41:20.408Z,61.78
2018-09-01T22:43:49.085Z,62.80
2018-09-01T22:46:17.793Z,63.68
2018-09-01T22:48:46.453Z,63.48
2018-09-01T22:51:15.068Z,64.36
2018-09-01T22:53:43.863Z,64.47
2018-09-01T22:56:12.509Z,64.66
2018-09-01T22:58:41.216Z,65.55
2018-09-01T23:01:09.896Z,65.26
2018-09-01T23:03:38.703Z,66.24
2018-09-01T23:06:08.045Z,65.76
2018-09-01T23:08:36.799Z,66.59
2018-09-01T23:11:06.063Z,66.84
2018-09-01T23:13:34.872Z,67.25
2018-09-01T23:16:03.777Z,67.06
2018-09-01T23:18:32.575Z,67.15
2018-09-01T23:21:01.398Z,67.72
2018-09-01T23:23:30.123Z,67.54
2018-09-01T23:25:59.085Z,68.46
2018-09-01T23:28:27.813Z,67.67
2018-09-01T23:30:56.724Z,67.95
2018-09-01T23:33:25.602Z,69.03
2018-09-01T23:35:54.388Z,69.10
2018-09-01T23:38:23.328Z,69.76
2018-09-01T23:40:52.171Z,69.48
2018-09-01T23:43:20.994Z,70.59
2018-09-01T23:45:49.857Z,70.50
2018-09-01T23:48:18.748Z,70.53
2018-09-01T23:50:47.628Z,71.37
2018-09-01T23:53:16.564Z,71.94
2018-09-01T23:55:45.359Z,71.22
2018-09-01T23:58:14.955Z,71.42
